Udon Thani, Thailand

10:09 PM ICT on December 05, 2016 (GMT +0700)
Nongsai Udonthani | | Change Station

Elev 577 ft 17.41 °N, 102.83 °E | Updated 7 seconds ago

Clear
Clear
72.9 °F
Feels Like 74 °F
N
0.0
Wind Variable Wind from East
Gusts 0.0 mph

Today
High -- | Low -- °F
--% Chance of Precip.
Yesterday
High -- | Low -- °F
Precip. -- in
Pressure 30.01 in
Visibility -9999.0 miles
Clouds
Heat Index 74 °F
Dew Point 66 °F
Humidity 78%
Rainfall 0.00 in
Snow Depth Not available.
6:25 AM 5:33 PM
Waxing Crescent, 32% visible
METAR VTUD 051400Z 05003KT 020V080 CAVOK 24/19 Q1016
Pressure 30.01 in
Visibility -9999.0 miles
Clouds
Heat Index 74 °F
Dew Point 66 °F
Humidity 78%
Rainfall 0.00 in
Snow Depth Not available.
6:25 AM 5:33 PM
Waxing Crescent, 32% visible
METAR VTUD 051400Z 05003KT 020V080 CAVOK 24/19 Q1016

10-Day Weather Forecast

No radar image for this location.
×

Almanac

Astronomy

Dec. 05, 2016 Rise Set
Actual Time
Civil Twilight
Nautical Twilight
Astronomical Twilight
Moon
Length of Visible Light
Length of Day
Tomorrow will be .
, % of the Moon is Illuminated

Today's Extremes

Country Highs Country Lows

Community

WunderPhotos

Upload Photos

1,955,787 photos uploaded!

WunderBlog® & News

Nearby

Air Quality

  Air Quality AQ Index Pollutant
Not available.

Snow Depth

Station Depth Elevation

Earthquake Activity

City Distance Mag. Time & Date
Minimum magnitude displayed is 2.5.

Coastal Water Temperatures

Place Temperature

Stations

Nearby Weather Stations

Station Location Temp. Windchill Dew Point Humidity Wind Precip. Elev Updated Type